Map

Track Data

SID SEASON NUMBER BASIN SUBBASIN NAME ISO_TIME NATURE LAT LON WMO_WIND WMO_PRES WMO_AGENCY TRACK_TYPE DIST2LAND LANDFALL IFLAG USA_AGENCY USA_ATCF_ID USA_LAT USA_LON USA_RECORD USA_STATUS USA_WIND USA_PRES USA_SSHS USA_R34_NE USA_R34_SE USA_R34_SW USA_R34_NW USA_R50_NE USA_R50_SE USA_R50_SW USA_R50_NW USA_R64_NE USA_R64_SE USA_R64_SW USA_R64_NW USA_POCI USA_ROCI USA_RMW USA_EYE TOKYO_LAT TOKYO_LON TOKYO_GRADE TOKYO_WIND TOKYO_PRES TOKYO_R50_DIR TOKYO_R50_LONG TOKYO_R50_SHORT TOKYO_R30_DIR TOKYO_R30_LONG TOKYO_R30_SHORT TOKYO_LAND CMA_LAT CMA_LON CMA_CAT CMA_WIND CMA_PRES HKO_LAT HKO_LON HKO_CAT HKO_WIND HKO_PRES NEWDELHI_LAT NEWDELHI_LON NEWDELHI_GRADE NEWDELHI_WIND NEWDELHI_PRES NEWDELHI_CI NEWDELHI_DP NEWDELHI_POCI REUNION_LAT REUNION_LON REUNION_TYPE REUNION_WIND REUNION_PRES REUNION_TNUM REUNION_CI REUNION_RMW REUNION_R34_NE REUNION_R34_SE REUNION_R34_SW REUNION_R34_NW REUNION_R50_NE REUNION_R50_SE REUNION_R50_SW REUNION_R50_NW REUNION_R64_NE REUNION_R64_SE REUNION_R64_SW REUNION_R64_NW BOM_LAT BOM_LON BOM_TYPE BOM_WIND BOM_PRES BOM_TNUM BOM_CI BOM_RMW BOM_R34_NE BOM_R34_SE BOM_R34_SW BOM_R34_NW BOM_R50_NE BOM_R50_SE BOM_R50_SW BOM_R50_NW BOM_R64_NE BOM_R64_SE BOM_R64_SW BOM_R64_NW BOM_ROCI BOM_POCI BOM_EYE BOM_POS_METHOD BOM_PRES_METHOD NADI_LAT NADI_LON NADI_CAT NADI_WIND NADI_PRES WELLINGTON_LAT WELLINGTON_LON WELLINGTON_WIND WELLINGTON_PRES DS824_LAT DS824_LON DS824_STAGE DS824_WIND DS824_PRES TD9636_LAT TD9636_LON TD9636_STAGE TD9636_WIND TD9636_PRES TD9635_LAT TD9635_LON TD9635_WIND TD9635_PRES TD9635_ROCI NEUMANN_LAT NEUMANN_LON NEUMANN_CLASS NEUMANN_WIND NEUMANN_PRES MLC_LAT MLC_LON MLC_CLASS MLC_WIND MLC_PRES USA_GUST BOM_GUST BOM_GUST_PER REUNION_GUST REUNION_GUST_PER USA_SEAHGT USA_SEARAD_NE USA_SEARAD_SE USA_SEARAD_SW USA_SEARAD_NW STORM_SPEED STORM_DIR
1980161N09249 1980 39 EP MM AGATHA 1980-06-09 00:00:00 TS 8.90000 -111.000 30 hurdat_epa main 1327 1327 O________OO___ hurdat_epa EP011980 8.90000 -111.000 TD 30 -1 8.90000 -111.000 TC 30 8.90000 -111.000 1 30 8 255
1980161N09249 1980 39 EP MM AGATHA 1980-06-09 03:00:00 TS 8.80006 -111.389 main 1363 1363 P________PP___ EP011980 8.80002 -111.378 TD 30 -1 8.80002 -111.378 TC 30 8.80020 -111.435 1 30 8 256
1980161N09249 1980 39 EP MM AGATHA 1980-06-09 06:00:00 TS 8.70003 -111.815 30 hurdat_epa main 1396 1396 O________OP___ hurdat_epa EP011980 8.70000 -111.800 TD 30 -1 8.70000 -111.800 TC 30 8.70014 -111.875 1 30 9 257
1980161N09249 1980 39 EP MM AGATHA 1980-06-09 09:00:00 TS 8.60002 -112.300 main 1435 1435 P________PP___ EP011980 8.60002 -112.293 TD 30 -1 8.60002 -112.293 TC 30 8.60001 -112.328 1 30 10 258
1980161N09249 1980 39 EP MM AGATHA 1980-06-09 12:00:00 TS 8.50000 -112.800 30 hurdat_epa main 1476 1476 O________OO___ hurdat_epa EP011980 8.50000 -112.800 TD 30 -1 8.50000 -112.800 TC 30 8.50000 -112.800 1 30 10 257
1980161N09249 1980 39 EP MM AGATHA 1980-06-09 15:00:00 TS 8.38293 -113.270 main 1517 1517 P________PP___ EP011980 8.37745 -113.265 TD 37 0 8.37745 -113.265 TC 37 8.40484 -113.289 1 33 9 258
1980161N09249 1980 39 EP MM AGATHA 1980-06-09 18:00:00 TS 8.30755 -113.713 45 hurdat_epa main 1552 1552 O________OP___ hurdat_epa EP011980 8.30000 -113.700 TS 45 0 8.30000 -113.700 TC 45 8.33775 -113.763 1 37 9 265
1980161N09249 1980 39 EP MM AGATHA 1980-06-09 21:00:00 TS 8.30338 -114.158 main 1586 1586 P________PP___ EP011980 8.29753 -114.152 TS 45 0 8.29753 -114.152 TC 45 8.32675 -114.180 1 41 8 277
1980161N09249 1980 39 EP MM AGATHA 1980-06-10 00:00:00 TS 8.40000 -114.500 45 hurdat_epa main 1598 1588 O________OO___ hurdat_epa EP011980 8.40000 -114.500 TS 45 0 8.40000 -114.500 TC 45 8.40000 -114.500 2 45 6 302
1980161N09249 1980 39 EP MM AGATHA 1980-06-10 03:00:00 TS 8.61185 -114.657 main 1596 1570 P________PP___ EP011980 8.61243 -114.653 TS 50 0 8.61243 -114.653 TC 50 8.60953 -114.676 2 48 5 337
1980161N09249 1980 39 EP MM AGATHA 1980-06-10 06:00:00 TS 8.89971 -114.711 55 hurdat_epa main 1570 1553 O________OP___ hurdat_epa EP011980 8.90000 -114.700 TS 55 0 8.90000 -114.700 TC 55 8.89857 -114.756 2 52 6 350
1980161N09249 1980 39 EP MM AGATHA 1980-06-10 09:00:00 TS 9.20866 -114.763 main 1553 1528 P________PP___ EP011980 9.20749 -114.758 TS 57 0 9.20749 -114.758 TC 57 9.21334 -114.783 2 56 6 352
1980161N09249 1980 39 EP MM AGATHA 1980-06-10 12:00:00 TS 9.50000 -114.800 60 hurdat_epa main 1528 1512 O________OO___ hurdat_epa EP011980 9.50000 -114.800 TS 60 0 9.50000 -114.800 TC 60 9.50000 -114.800 2 60 5 352
1980161N09249 1980 39 EP MM AGATHA 1980-06-10 15:00:00 TS 9.72108 -114.835 main 1512 1504 P________PP___ EP011980 9.72249 -114.835 TS 65 1 9.72249 -114.835 TC 65 9.71547 -114.836 2 65 4 347
1980161N09249 1980 39 EP MM AGATHA 1980-06-10 18:00:00 TS 9.90000 -114.900 70 hurdat_epa main 1504 1496 O________OO___ hurdat_epa EP011980 9.90000 -114.900 HU 70 1 9.90000 -114.900 TC 70 9.90000 -114.900 3 70 4 332
1980161N09249 1980 39 EP MM AGATHA 1980-06-10 21:00:00 TS 10.0366 -115.000 main 1503 1495 P________PP___ EP011980 10.0349 -114.998 HU 70 1 10.0349 -114.998 TC 70 10.0434 -115.009 3 70 4 316
1980161N09249 1980 39 EP MM AGATHA 1980-06-11 00:00:00 TS 10.2000 -115.200 70 hurdat_epa main 1503 1502 O________OO___ hurdat_epa EP011980 10.2000 -115.200 HU 70 1 10.2000 -115.200 TC 70 10.2000 -115.200 4 70 7 309
1980161N09249 1980 39 EP MM AGATHA 1980-06-11 03:00:00 TS 10.4689 -115.548 main 1502 1496 P________PP___ EP011980 10.4776 -115.562 HU 70 1 10.4776 -115.562 TC 70 10.4345 -115.492 4 71 10 307
1980161N09249 1980 39 EP MM AGATHA 1980-06-11 06:00:00 TS 10.7850 -115.975 70 hurdat_epa main 1496 1480 O________OP___ hurdat_epa EP011980 10.8000 -116.000 HU 70 1 10.8000 -116.000 TC 70 10.7251 -115.877 4 72 10 307
1980161N09249 1980 39 EP MM AGATHA 1980-06-11 09:00:00 TS 11.0845 -116.373 main 1484 1469 P________PP___ EP011980 11.0924 -116.385 HU 72 1 11.0924 -116.385 TC 72 11.0532 -116.324 4 73 10 307
1980161N09249 1980 39 EP MM AGATHA 1980-06-11 12:00:00 TS 11.4000 -116.800 75 hurdat_epa main 1475 1466 O________OO___ hurdat_epa EP011980 11.4000 -116.800 HU 75 1 11.4000 -116.800 TC 75 11.4000 -116.800 4 75 11 306
1980161N09249 1980 39 EP MM AGATHA 1980-06-11 15:00:00 TS 11.7419 -117.282 main 1472 1457 P________PP___ EP011980 11.7425 -117.293 HU 80 1 11.7425 -117.293 TC 80 11.7394 -117.237 4 81 12 306
1980161N09249 1980 39 EP MM AGATHA 1980-06-11 18:00:00 TS 12.0984 -117.780 85 hurdat_epa main 1463 1454 O________OP___ hurdat_epa EP011980 12.1000 -117.800 HU 85 2 12.1000 -117.800 TC 85 12.0921 -117.698 4 87 12 308
1980161N09249 1980 39 EP MM AGATHA 1980-06-11 21:00:00 TS 12.4555 -118.225 main 1451 1450 P________PP___ EP011980 12.4573 -118.235 HU 92 2 12.4573 -118.235 TC 92 12.4487 -118.184 4 93 11 308
1980161N09249 1980 39 EP MM AGATHA 1980-06-12 00:00:00 TS 12.8000 -118.700 100 hurdat_epa main 1456 1454 O________OO___ hurdat_epa EP011980 12.8000 -118.700 HU 100 3 12.8000 -118.700 TC 100 12.8000 -118.700 4 100 12 302
1980161N09249 1980 39 EP MM AGATHA 1980-06-12 03:00:00 TS 13.1057 -119.278 main 1471 1470 P________PP___ EP011980 13.1001 -119.285 HU 97 3 13.1001 -119.285 TC 97 13.1281 -119.251 4 97 13 298
1980161N09249 1980 39 EP MM AGATHA 1980-06-12 06:00:00 TS 13.4100 -119.886 95 hurdat_epa main 1490 1488 O________OP___ hurdat_epa EP011980 13.4000 -119.900 HU 95 2 13.4000 -119.900 TC 95 13.4500 -119.828 4 95 13 299
1980161N09249 1980 39 EP MM AGATHA 1980-06-12 09:00:00 TS 13.7422 -120.449 main 1503 1500 P________PP___ EP011980 13.7348 -120.458 HU 92 2 13.7348 -120.458 TC 92 13.7718 -120.416 4 92 13 303
1980161N09249 1980 39 EP MM AGATHA 1980-06-12 12:00:00 TS 14.1000 -121.000 90 hurdat_epa main 1507 1503 O________OO___ hurdat_epa EP011980 14.1000 -121.000 HU 90 2 14.1000 -121.000 TC 90 14.1000 -121.000 4 90 13 305
1980161N09249 1980 39 EP MM AGATHA 1980-06-12 15:00:00 TS 14.4976 -121.550 main 1505 1503 P________PP___ EP011980 14.5074 -121.550 HU 87 2 14.5074 -121.550 TC 87 14.4584 -121.549 4 85 13 306
1980161N09249 1980 39 EP MM AGATHA 1980-06-12 18:00:00 TS 14.8843 -122.099 85 hurdat_epa main 1513 1512 O________OP___ hurdat_epa EP011980 14.9000 -122.100 HU 85 2 14.9000 -122.100 TC 85 14.8216 -122.093 4 80 13 304
1980161N09249 1980 39 EP MM AGATHA 1980-06-12 21:00:00 TS 15.2007 -122.648 main 1526 1526 P________PP___ EP011980 15.2074 -122.650 HU 77 1 15.2074 -122.650 TC 77 15.1740 -122.640 4 75 12 300
1980161N09249 1980 39 EP MM AGATHA 1980-06-13 00:00:00 TS 15.5000 -123.200 70 hurdat_epa main 1547 1547 O________OO___ hurdat_epa EP011980 15.5000 -123.200 HU 70 1 15.5000 -123.200 TC 70 15.5000 -123.200 4 70 12 302
1980161N09249 1980 39 EP MM AGATHA 1980-06-13 03:00:00 TS 15.8583 -123.743 main 1556 1556 P________PP___ EP011980 15.8722 -123.735 HU 67 1 15.8722 -123.735 TC 67 15.8026 -123.778 4 68 13 302
1980161N09249 1980 39 EP MM AGATHA 1980-06-13 06:00:00 TS 16.1749 -124.314 65 hurdat_epa main 1583 1583 O________OP___ hurdat_epa EP011980 16.2000 -124.300 HU 65 1 16.2000 -124.300 TC 65 16.0743 -124.370 4 67 13 293
1980161N09249 1980 39 EP MM AGATHA 1980-06-13 09:00:00 TS 16.3598 -124.950 main 1619 1619 P________PP___ EP011980 16.3725 -124.943 HU 65 1 16.3725 -124.943 TC 65 16.3088 -124.978 4 66 13 285
1980161N09249 1980 39 EP MM AGATHA 1980-06-13 12:00:00 TS 16.5000 -125.600 65 hurdat_epa main 1659 1659 O________OO___ hurdat_epa EP011980 16.5000 -125.600 HU 65 1 16.5000 -125.600 TC 65 16.5000 -125.600 4 65 13 286
1980161N09249 1980 39 EP MM AGATHA 1980-06-13 15:00:00 TS 16.7071 -126.202 main 1683 1682 P________PP___ EP011980 16.7221 -126.192 HU 57 0 16.7221 -126.192 TC 57 16.6469 -126.240 4 60 12 288
1980161N09249 1980 39 EP MM AGATHA 1980-06-13 18:00:00 TS 16.8704 -126.819 50 hurdat_epa main 1709 1709 O________OP___ hurdat_epa EP011980 16.9000 -126.800 TS 50 0 16.9000 -126.800 TC 50 16.7521 -126.893 4 55 13 279
1980161N09249 1980 39 EP MM AGATHA 1980-06-13 21:00:00 TS 16.9043 -127.510 main 1761 1761 P________PP___ EP011980 16.9226 -127.500 TS 47 0 16.9226 -127.500 TC 47 16.8312 -127.550 4 50 13 271
1980161N09249 1980 39 EP MM AGATHA 1980-06-14 00:00:00 TS 16.9000 -128.200 45 hurdat_epa main 1814 1814 O________OO___ hurdat_epa EP011980 16.9000 -128.200 TS 45 0 16.9000 -128.200 TC 45 16.9000 -128.200 2 45 13 272
1980161N09249 1980 39 EP MM AGATHA 1980-06-14 03:00:00 TS 16.9408 -128.816 main 1860 1860 P________PP___ EP011980 16.9346 -128.808 TS 40 0 16.9346 -128.808 TC 40 16.9656 -128.849 2 41 12 275
1980161N09249 1980 39 EP MM AGATHA 1980-06-14 06:00:00 TS 17.0054 -129.418 35 hurdat_epa main 1900 1900 O________OP___ hurdat_epa EP011980 17.0000 -129.400 TS 35 0 17.0000 -129.400 TC 35 17.0271 -129.488 2 37 12 277
1980161N09249 1980 39 EP MM AGATHA 1980-06-14 09:00:00 TS 17.0821 -130.074 main 1949 1949 P________PP___ EP011980 17.0776 -130.065 TS 32 -1 17.0776 -130.065 TC 32 17.1001 -130.108 2 33 12 279
1980161N09249 1980 39 EP MM AGATHA 1980-06-14 12:00:00 TS 17.2000 -130.700 30 hurdat_epa main 1991 1991 O________OO___ hurdat_epa EP011980 17.2000 -130.700 TD 30 -1 17.2000 -130.700 TC 30 17.2000 -130.700 1 30 11 286
1980161N09249 1980 39 EP MM AGATHA 1980-06-14 15:00:00 TS 17.3877 -131.223 main 2019 2019 P________PP___ EP011980 17.3921 -131.215 TD 30 -1 17.3921 -131.215 TC 30 17.3699 -131.257 1 30 10 292
1980161N09249 1980 39 EP MM AGATHA 1980-06-14 18:00:00 TS 17.5928 -131.717 30 hurdat_epa main 2048 2048 O________OP___ hurdat_epa EP011980 17.6000 -131.700 TD 30 -1 17.6000 -131.700 TC 30 17.5641 -131.787 1 30 11 291
1980161N09249 1980 39 EP MM AGATHA 1980-06-14 21:00:00 TS 17.7622 -132.260 main 2086 2086 P________PP___ EP011980 17.7650 -132.250 TD 30 -1 17.7650 -132.250 TC 30 17.7512 -132.298 1 30 11 287
1980161N09249 1980 39 EP MM AGATHA 1980-06-15 00:00:00 TS 17.9000 -132.800 30 hurdat_epa main 2123 2123 O________OO___ hurdat_epa EP011980 17.9000 -132.800 TD 30 -1 17.9000 -132.800 TC 30 17.9000 -132.800 1 30 10 285
1980161N09249 1980 39 EP MM AGATHA 1980-06-15 03:00:00 TS 18.0202 -133.303 main 2161 2161 P________PP___ EP011980 18.0298 -133.307 TD 27 -1 18.0298 -133.307 TC 27 17.9818 -133.285 1 28 10 281
1980161N09249 1980 39 EP MM AGATHA 1980-06-15 06:00:00 TS 18.0841 -133.793 25 hurdat_epa main 2199 2162 O________OP___ hurdat_epa EP011980 18.1000 -133.800 TD 25 -1 18.1000 -133.800 TC 25 18.0206 -133.766 1 27 9 273
1980161N09249 1980 39 EP MM AGATHA 1980-06-15 09:00:00 TS 18.0626 -134.281 main 2162 2111 P________PP___ EP011980 18.0722 -134.285 TD 25 -1 18.0722 -134.285 TC 25 18.0242 -134.264 1 26 10 265
1980161N09249 1980 39 EP MM AGATHA 1980-06-15 12:00:00 TS 18.0000 -134.800 25 hurdat_epa main 2111 2059 O________OO___ hurdat_epa EP011980 18.0000 -134.800 TD 25 -1 18.0000 -134.800 TC 25 18.0000 -134.800 1 25 11 264
1980161N09249 1980 39 EP MM AGATHA 1980-06-15 15:00:00 TS 17.9455 -135.381 main 2050 1987 P________PP___ EP011980 17.9430 -135.380 TD 25 -1 17.9430 -135.380 TC 25 17.9557 -135.386 1 25 11 265
1980161N09249 1980 39 EP MM AGATHA 1980-06-15 18:00:00 TS 17.9000 -136.000 25 hurdat_epa main 1987 O________OO___ hurdat_epa EP011980 17.9000 -136.000 TD 25 -1 17.9000 -136.000 TC 25 17.9000 -136.000 1 25 12 266

About IBTrACS Database

This database is a web-friendly format of International Best Track Archive for Climate Stewardship (IBTrACS), a global best track data archive curated by NOAA dating back to 1842.

Updated: 2021-11-26